createdAt,value
2022-12-12T00:01:21.912Z,6.87
2022-12-12T00:03:48.822Z,7.57
2022-12-12T00:06:15.615Z,6.82
2022-12-12T00:08:42.115Z,6.28
2022-12-12T00:11:08.666Z,8.07
2022-12-12T00:13:36.267Z,7.10
2022-12-12T00:16:05.330Z,8.15
2022-12-12T00:18:31.712Z,9.18
2022-12-12T00:20:58.571Z,7.13
2022-12-12T00:23:25.880Z,7.53
2022-12-12T00:26:02.110Z,6.47
2022-12-12T00:28:28.685Z,7.68
2022-12-12T00:30:55.820Z,7.22
2022-12-12T00:33:22.445Z,6.90
2022-12-12T00:35:53.923Z,8.68
2022-12-12T00:38:22.453Z,8.07
2022-12-12T00:40:49.850Z,7.38
2022-12-12T00:43:16.333Z,7.75
2022-12-12T00:45:42.744Z,7.22
2022-12-12T00:48:09.542Z,6.30
2022-12-12T00:50:35.996Z,5.77
2022-12-12T00:53:02.560Z,9.90
2022-12-12T00:55:28.930Z,7.10
2022-12-12T00:57:55.423Z,6.35
2022-12-12T01:00:22.409Z,9.10
2022-12-12T01:02:48.968Z,9.63
2022-12-12T01:05:16.641Z,7.10
2022-12-12T01:07:43.279Z,7.35
2022-12-12T01:10:10.537Z,5.97
2022-12-12T01:12:36.993Z,8.32
2022-12-12T01:15:05.193Z,7.20
2022-12-12T01:17:37.554Z,7.30
2022-12-12T01:20:14.578Z,7.65
2022-12-12T01:22:41.209Z,7.15
2022-12-12T01:25:07.828Z,7.68
2022-12-12T01:27:34.255Z,6.90
2022-12-12T01:30:02.383Z,7.63
2022-12-12T01:32:29.115Z,7.28
2022-12-12T01:34:55.645Z,9.43
2022-12-12T01:37:22.285Z,7.70
2022-12-12T01:39:48.882Z,7.27
2022-12-12T01:42:18.649Z,7.88
2022-12-12T01:44:51.166Z,7.90
2022-12-12T01:47:19.819Z,7.40
2022-12-12T01:49:52.554Z,10.85
2022-12-12T01:52:41.968Z,7.97
2022-12-12T01:55:13.761Z,8.10
2022-12-12T01:57:44.593Z,8.50
2022-12-12T02:00:12.034Z,10.57
2022-12-12T02:02:41.843Z,8.07
2022-12-12T02:05:18.690Z,7.30
2022-12-12T02:07:45.239Z,7.03
2022-12-12T02:10:11.840Z,8.15
2022-12-12T02:12:38.502Z,8.40
2022-12-12T02:15:05.651Z,11.98
2022-12-12T02:17:53.262Z,7.70
2022-12-12T02:20:56.877Z,7.88
2022-12-12T02:23:58.269Z,6.93
2022-12-12T02:26:38.654Z,8.65
2022-12-12T02:29:36.774Z,7.75
2022-12-12T02:32:19.390Z,7.80
2022-12-12T02:34:51.545Z,7.90
2022-12-12T02:37:25.075Z,8.82
2022-12-12T02:39:54.442Z,10.40
2022-12-12T02:42:29.254Z,7.15
2022-12-12T02:45:07.044Z,8.90
2022-12-12T02:47:39.388Z,7.75
2022-12-12T02:50:16.464Z,9.23
2022-12-12T02:52:43.623Z,8.63
2022-12-12T02:55:10.276Z,9.52
2022-12-12T02:57:36.873Z,7.20
2022-12-12T03:00:10.307Z,9.57
2022-12-12T03:03:32.627Z,10.30
2022-12-12T03:06:47.834Z,8.55
2022-12-12T03:09:21.794Z,10.32
2022-12-12T03:12:08.743Z,8.70
2022-12-12T03:14:35.110Z,7.25
2022-12-12T03:17:14.218Z,8.50
2022-12-12T03:19:53.718Z,10.07
2022-12-12T03:22:37.225Z,7.97
2022-12-12T03:25:16.051Z,8.40
2022-12-12T03:27:52.409Z,8.32
2022-12-12T03:30:20.055Z,8.77
2022-12-12T03:32:56.033Z,11.38
2022-12-12T03:35:27.617Z,8.95
2022-12-12T03:38:01.246Z,9.90
2022-12-12T03:40:33.441Z,8.25
2022-12-12T03:43:06.681Z,11.15
2022-12-12T03:45:48.106Z,7.30
2022-12-12T03:48:31.079Z,8.52
2022-12-12T03:51:23.328Z,8.50
2022-12-12T03:54:13.213Z,10.07
2022-12-12T03:57:05.717Z,8.02
2022-12-12T03:59:43.941Z,8.07
2022-12-12T04:02:19.828Z,9.55
2022-12-12T04:04:58.102Z,8.50
2022-12-12T04:07:31.840Z,7.43
2022-12-12T04:10:16.883Z,8.20
2022-12-12T04:13:32.064Z,7.22
2022-12-12T04:16:09.992Z,8.27
2022-12-12T04:18:42.378Z,7.50
2022-12-12T04:22:15.364Z,7.53
2022-12-12T04:24:55.737Z,9.52
2022-12-12T04:27:28.602Z,8.70
2022-12-12T04:30:08.255Z,8.60
2022-12-12T04:32:53.034Z,8.13
2022-12-12T04:35:36.344Z,8.40
2022-12-12T04:38:16.851Z,7.03
2022-12-12T04:40:47.494Z,8.90
2022-12-12T04:43:21.170Z,10.32
2022-12-12T04:45:56.521Z,9.37
2022-12-12T04:48:35.650Z,7.78
2022-12-12T04:51:06.089Z,8.07
2022-12-12T04:53:43.635Z,8.85
2022-12-12T04:56:13.671Z,7.05
2022-12-12T04:58:40.683Z,7.63
2022-12-12T05:01:15.103Z,10.27
2022-12-12T05:03:47.139Z,9.70
2022-12-12T05:06:21.750Z,9.68
2022-12-12T05:08:51.814Z,9.13
2022-12-12T05:11:19.089Z,9.57
2022-12-12T05:13:45.481Z,7.10
2022-12-12T05:16:24.001Z,9.75
2022-12-12T05:18:50.474Z,8.05
2022-12-12T05:21:16.906Z,8.60
2022-12-12T05:23:43.381Z,7.33
2022-12-12T05:26:18.758Z,7.60
2022-12-12T05:28:45.256Z,7.40
2022-12-12T05:31:11.699Z,7.95
2022-12-12T05:33:38.114Z,8.32
2022-12-12T05:36:04.666Z,11.27
2022-12-12T05:38:31.094Z,7.22
2022-12-12T05:40:57.542Z,9.35
2022-12-12T05:43:23.902Z,8.35
2022-12-12T05:45:50.333Z,9.25
2022-12-12T05:48:22.622Z,8.67
2022-12-12T05:50:50.614Z,8.48
2022-12-12T05:53:16.977Z,7.88
2022-12-12T05:55:43.437Z,7.30
2022-12-12T05:58:09.846Z,7.97
2022-12-12T06:00:36.259Z,7.53
2022-12-12T06:03:02.751Z,8.00
2022-12-12T06:05:29.218Z,7.97
2022-12-12T06:07:55.795Z,8.63
2022-12-12T06:10:22.218Z,10.63
2022-12-12T06:12:48.737Z,8.73
2022-12-12T06:15:15.526Z,10.10
2022-12-12T06:17:42.110Z,8.18
2022-12-12T06:20:08.982Z,9.35
2022-12-12T06:22:36.202Z,10.48
2022-12-12T06:25:03.117Z,10.07
2022-12-12T06:27:29.495Z,9.77
2022-12-12T06:29:55.934Z,9.75
2022-12-12T06:32:22.278Z,9.38
2022-12-12T06:34:48.729Z,10.07
2022-12-12T06:37:17.380Z,8.63
2022-12-12T06:39:44.197Z,9.68
2022-12-12T06:42:10.686Z,10.95
2022-12-12T06:44:37.047Z,10.82
2022-12-12T06:47:03.421Z,9.00
2022-12-12T06:49:29.815Z,9.90
2022-12-12T06:51:56.266Z,11.13
2022-12-12T06:54:23.560Z,11.13
2022-12-12T06:56:49.982Z,10.63
2022-12-12T06:59:16.998Z,9.52
2022-12-12T07:01:43.792Z,9.30
2022-12-12T07:04:12.569Z,10.70
2022-12-12T07:06:39.017Z,14.98
2022-12-12T07:09:05.845Z,18.38
2022-12-12T07:11:32.365Z,13.43
2022-12-12T07:13:59.922Z,16.97
2022-12-12T07:16:26.376Z,16.65
2022-12-12T07:18:53.200Z,16.15
2022-12-12T07:21:20.746Z,15.02
2022-12-12T07:23:47.542Z,12.40
2022-12-12T07:26:16.497Z,17.43
2022-12-12T07:28:42.933Z,17.77
2022-12-12T07:31:12.424Z,14.93
2022-12-12T07:33:43.550Z,14.48
2022-12-12T07:36:10.991Z,15.77
2022-12-12T07:38:37.555Z,16.87
2022-12-12T07:41:10.056Z,13.82
2022-12-12T07:43:43.320Z,18.00
2022-12-12T07:46:14.132Z,16.63
2022-12-12T07:48:40.599Z,15.90
2022-12-12T07:51:06.957Z,15.77
2022-12-12T07:53:33.415Z,17.15
2022-12-12T07:55:59.821Z,15.15
2022-12-12T07:58:26.276Z,17.80
2022-12-12T08:00:52.776Z,13.38
2022-12-12T08:03:19.251Z,12.27
2022-12-12T08:05:45.585Z,16.27
2022-12-12T08:08:11.993Z,16.48
2022-12-12T08:10:40.273Z,13.23
2022-12-12T08:13:06.826Z,13.88
2022-12-12T08:15:33.625Z,13.37
2022-12-12T08:18:00.172Z,14.40
2022-12-12T08:20:26.611Z,15.27
2022-12-12T08:22:53.183Z,12.27
2022-12-12T08:25:19.582Z,16.38
2022-12-12T08:27:45.900Z,11.87
2022-12-12T08:30:12.633Z,11.93
2022-12-12T08:32:39.042Z,12.68
2022-12-12T08:35:06.058Z,12.40
2022-12-12T08:37:32.560Z,14.07
2022-12-12T08:39:59.009Z,13.57
2022-12-12T08:42:25.474Z,12.10
2022-12-12T08:44:51.897Z,11.55
2022-12-12T08:47:18.230Z,11.90
2022-12-12T08:49:44.696Z,13.02
2022-12-12T08:52:11.162Z,10.70
2022-12-12T08:54:38.029Z,14.27
2022-12-12T08:57:04.581Z,15.73
2022-12-12T08:59:31.129Z,11.77
2022-12-12T09:01:57.750Z,12.32
2022-12-12T09:04:24.263Z,15.33
2022-12-12T09:06:50.650Z,12.55
2022-12-12T09:09:17.109Z,14.95
2022-12-12T09:11:43.852Z,11.40
2022-12-12T09:14:10.253Z,15.20
2022-12-12T09:16:36.747Z,14.03
2022-12-12T09:19:03.375Z,14.32
2022-12-12T09:21:29.724Z,10.93
2022-12-12T09:23:56.165Z,14.20
2022-12-12T09:26:22.528Z,15.07
2022-12-12T09:28:48.977Z,12.07
2022-12-12T09:31:15.483Z,15.85
2022-12-12T09:33:42.903Z,13.43
2022-12-12T09:36:12.022Z,13.02
2022-12-12T09:38:38.559Z,12.55
2022-12-12T09:41:20.419Z,18.80
2022-12-12T09:44:00.865Z,14.98
2022-12-12T09:46:27.199Z,14.35
2022-12-12T09:49:01.618Z,11.02
2022-12-12T09:51:28.394Z,10.13
2022-12-12T09:53:54.840Z,14.03
2022-12-12T09:56:44.447Z,14.43
2022-12-12T09:59:27.602Z,11.38
2022-12-12T10:02:23.726Z,11.88
2022-12-12T10:05:15.159Z,11.43
2022-12-12T10:07:49.079Z,10.17
2022-12-12T10:10:24.560Z,11.23
2022-12-12T10:12:52.274Z,13.65
2022-12-12T10:15:34.085Z,11.50
2022-12-12T10:18:09.834Z,11.52
2022-12-12T10:20:45.671Z,18.70
2022-12-12T10:23:33.455Z,14.15
2022-12-12T10:26:05.282Z,10.05
2022-12-12T10:28:32.561Z,11.73
2022-12-12T10:31:18.835Z,12.77
2022-12-12T10:34:07.022Z,11.90
2022-12-12T10:37:04.914Z,10.82
2022-12-12T10:39:55.964Z,10.98
2022-12-12T10:42:31.442Z,13.85
2022-12-12T10:45:15.714Z,12.57
2022-12-12T10:47:42.302Z,13.20
2022-12-12T10:50:13.607Z,10.20
2022-12-12T10:52:40.219Z,9.98
2022-12-12T10:55:18.997Z,11.05
2022-12-12T10:57:45.642Z,10.73
2022-12-12T11:00:27.334Z,9.60
2022-12-12T11:03:00.198Z,12.43
2022-12-12T11:05:29.919Z,10.13
2022-12-12T11:08:21.581Z,12.93
2022-12-12T11:11:01.841Z,9.90
2022-12-12T11:13:29.139Z,11.70
2022-12-12T11:16:01.984Z,10.15
2022-12-12T11:18:29.670Z,11.07
2022-12-12T11:21:01.912Z,13.88
2022-12-12T11:23:29.707Z,10.05
2022-12-12T11:25:59.846Z,13.07
2022-12-12T11:28:30.057Z,12.85
2022-12-12T11:30:56.829Z,10.85
2022-12-12T11:33:32.088Z,11.23
2022-12-12T11:36:01.800Z,12.18
2022-12-12T11:38:32.629Z,10.53
2022-12-12T11:41:03.115Z,11.10
2022-12-12T11:43:49.742Z,9.80
2022-12-12T11:46:19.173Z,8.60
2022-12-12T11:48:48.608Z,10.43
2022-12-12T11:51:32.641Z,10.27
2022-12-12T11:54:00.476Z,11.13
2022-12-12T11:56:57.572Z,11.85
2022-12-12T11:59:29.990Z,13.02
2022-12-12T12:02:20.608Z,10.27
2022-12-12T12:05:07.251Z,9.53
2022-12-12T12:07:54.443Z,9.73
2022-12-12T12:10:38.497Z,10.85
2022-12-12T12:13:16.548Z,11.18
2022-12-12T12:15:49.606Z,11.18
2022-12-12T12:18:26.575Z,8.83
2022-12-12T12:21:17.576Z,10.43
2022-12-12T12:23:52.368Z,8.57
2022-12-12T12:26:37.080Z,13.27
2022-12-12T12:29:32.274Z,9.15
2022-12-12T12:32:16.819Z,8.60
2022-12-12T12:34:58.445Z,10.45
2022-12-12T12:37:34.338Z,9.82
2022-12-12T12:40:31.784Z,7.82
2022-12-12T12:43:10.377Z,8.68
2022-12-12T12:45:51.838Z,10.70
2022-12-12T12:48:29.016Z,13.52
2022-12-12T12:51:08.797Z,11.40
2022-12-12T12:53:46.262Z,11.70
2022-12-12T12:56:27.695Z,8.35
2022-12-12T12:58:59.149Z,10.60
2022-12-12T13:01:32.051Z,7.88
2022-12-12T13:04:12.095Z,8.32
2022-12-12T13:06:41.406Z,13.75
2022-12-12T13:09:13.658Z,10.35
2022-12-12T13:11:44.519Z,8.03
2022-12-12T13:14:37.471Z,9.02
2022-12-12T13:17:07.757Z,12.90
2022-12-12T13:19:39.343Z,11.27
2022-12-12T13:22:30.552Z,11.57
2022-12-12T13:25:15.800Z,10.57
2022-12-12T13:27:47.898Z,12.20
2022-12-12T13:30:24.646Z,12.02
2022-12-12T13:33:01.451Z,11.35
2022-12-12T13:35:35.455Z,9.57
2022-12-12T13:38:03.061Z,10.40
2022-12-12T13:40:32.376Z,11.57
2022-12-12T13:43:09.082Z,10.15
2022-12-12T13:45:38.654Z,9.63
2022-12-12T13:48:09.847Z,11.35
2022-12-12T13:50:36.338Z,9.47
2022-12-12T13:53:05.829Z,9.00
2022-12-12T13:55:32.831Z,9.73
2022-12-12T13:57:59.632Z,12.15
2022-12-12T14:00:31.686Z,11.73
2022-12-12T14:03:03.738Z,12.30
2022-12-12T14:05:34.277Z,13.77
2022-12-12T14:08:10.007Z,11.23
2022-12-12T14:10:38.202Z,12.60
2022-12-12T14:13:19.629Z,7.97
2022-12-12T14:15:48.147Z,10.50
2022-12-12T14:18:29.792Z,11.10
2022-12-12T14:21:02.510Z,10.75
2022-12-12T14:23:35.146Z,9.88
2022-12-12T14:26:21.714Z,11.10
2022-12-12T14:29:08.029Z,8.93
2022-12-12T14:31:40.650Z,8.63
2022-12-12T14:34:23.919Z,8.23
2022-12-12T14:37:18.770Z,8.57
2022-12-12T14:40:19.580Z,9.35
2022-12-12T14:43:21.067Z,11.97
2022-12-12T14:45:53.606Z,8.55
2022-12-12T14:48:34.062Z,10.65
2022-12-12T14:51:11.862Z,9.43
2022-12-12T14:53:38.203Z,8.85
2022-12-12T14:56:11.544Z,8.73
2022-12-12T14:58:56.279Z,12.32
2022-12-12T15:01:30.779Z,9.68
2022-12-12T15:03:58.946Z,10.73
2022-12-12T15:06:33.263Z,9.75
2022-12-12T15:09:26.174Z,9.27
2022-12-12T15:11:54.653Z,9.82
2022-12-12T15:14:26.639Z,11.10
2022-12-12T15:17:01.681Z,8.35
2022-12-12T15:19:34.406Z,7.45
2022-12-12T15:22:00.922Z,9.47
2022-12-12T15:24:35.526Z,9.50
2022-12-12T15:27:01.927Z,8.68
2022-12-12T15:29:31.065Z,8.30
2022-12-12T15:32:01.932Z,11.32
2022-12-12T15:34:37.649Z,9.03
2022-12-12T15:37:32.995Z,10.35
2022-12-12T15:40:11.806Z,11.30
2022-12-12T15:42:40.566Z,11.02
2022-12-12T15:45:13.488Z,10.65
2022-12-12T15:47:39.931Z,9.77
2022-12-12T15:50:15.907Z,6.38
2022-12-12T15:52:43.408Z,12.00
2022-12-12T15:55:22.231Z,7.13
2022-12-12T15:57:51.826Z,10.00
2022-12-12T16:00:34.616Z,8.63
2022-12-12T16:03:21.880Z,7.68
2022-12-12T16:06:19.468Z,6.85
2022-12-12T16:08:59.287Z,8.07
2022-12-12T16:11:31.414Z,6.68
2022-12-12T16:13:58.732Z,7.03
2022-12-12T16:16:43.181Z,6.90
2022-12-12T16:19:36.947Z,9.38
2022-12-12T16:22:26.720Z,9.82
2022-12-12T16:24:55.887Z,8.23
2022-12-12T16:27:22.681Z,8.37
2022-12-12T16:29:49.075Z,8.13
2022-12-12T16:32:23.586Z,8.68
2022-12-12T16:34:49.979Z,6.70
2022-12-12T16:37:18.250Z,14.65
2022-12-12T16:39:44.875Z,6.70
2022-12-12T16:42:20.951Z,6.95
2022-12-12T16:44:47.824Z,7.80
2022-12-12T16:47:18.592Z,8.55
2022-12-12T16:49:45.447Z,10.02
2022-12-12T16:52:13.495Z,8.33
2022-12-12T16:54:40.558Z,8.57
2022-12-12T16:57:07.013Z,8.10
2022-12-12T16:59:33.721Z,8.73
2022-12-12T17:02:00.363Z,9.13
2022-12-12T17:04:27.512Z,10.03
2022-12-12T17:06:54.844Z,10.80
2022-12-12T17:09:23.343Z,8.18
2022-12-12T17:11:51.930Z,10.55
2022-12-12T17:14:23.422Z,8.07
2022-12-12T17:16:50.904Z,8.67
2022-12-12T17:19:17.360Z,9.80
2022-12-12T17:21:43.952Z,10.52
2022-12-12T17:24:10.643Z,12.35
2022-12-12T17:26:38.639Z,10.35
2022-12-12T17:29:07.194Z,10.07
2022-12-12T17:31:34.202Z,10.27
2022-12-12T17:34:01.779Z,8.05
2022-12-12T17:36:28.386Z,7.68
2022-12-12T17:38:54.895Z,10.27
2022-12-12T17:41:21.608Z,11.00
2022-12-12T17:43:53.645Z,10.00
2022-12-12T17:46:23.164Z,13.02
2022-12-12T17:48:50.170Z,9.32
2022-12-12T17:51:22.117Z,10.27
2022-12-12T17:53:51.057Z,9.77
2022-12-12T17:56:20.478Z,11.10
2022-12-12T17:58:49.490Z,11.45
2022-12-12T18:01:27.728Z,12.15
2022-12-12T18:03:54.993Z,13.40
2022-12-12T18:06:23.278Z,10.80
2022-12-12T18:08:50.567Z,9.05
2022-12-12T18:11:30.973Z,10.07
2022-12-12T18:14:04.058Z,10.88
2022-12-12T18:16:32.824Z,11.10
2022-12-12T18:18:59.835Z,14.73
2022-12-12T18:21:59.338Z,15.10
2022-12-12T18:24:17.726Z,10.45
2022-12-12T18:26:44.553Z,10.57
2022-12-12T18:29:12.963Z,11.23
2022-12-12T18:31:39.933Z,14.20
2022-12-12T18:34:06.818Z,14.23
2022-12-12T18:36:33.185Z,12.77
2022-12-12T18:39:05.426Z,12.40
2022-12-12T18:41:32.927Z,16.15
2022-12-12T18:44:05.963Z,12.33
2022-12-12T18:46:40.326Z,15.07
2022-12-12T18:49:09.802Z,15.82
2022-12-12T18:51:36.595Z,14.52
2022-12-12T18:54:09.401Z,12.32
2022-12-12T18:56:40.407Z,13.30
2022-12-12T18:59:07.695Z,12.13
2022-12-12T19:01:35.876Z,14.45
2022-12-12T19:04:10.727Z,14.35
2022-12-12T19:06:40.263Z,12.65
2022-12-12T19:09:17.623Z,12.87
2022-12-12T19:11:44.751Z,14.13
2022-12-12T19:14:13.071Z,15.93
2022-12-12T19:16:39.673Z,15.77
2022-12-12T19:19:06.449Z,15.60
2022-12-12T19:21:34.860Z,16.80
2022-12-12T19:24:03.057Z,18.48
2022-12-12T19:26:30.389Z,16.08
2022-12-12T19:29:03.545Z,17.85
2022-12-12T19:31:33.308Z,18.58
2022-12-12T19:34:00.208Z,19.73
2022-12-12T19:36:27.311Z,17.50
2022-12-12T19:38:56.559Z,20.63
2022-12-12T19:41:23.771Z,19.00
2022-12-12T19:43:52.076Z,17.48
2022-12-12T19:46:26.468Z,19.53
2022-12-12T19:48:58.238Z,20.58
2022-12-12T19:51:26.465Z,17.30
2022-12-12T19:53:58.103Z,22.95
2022-12-12T19:56:30.415Z,19.92
2022-12-12T19:58:57.810Z,24.57
2022-12-12T20:01:28.500Z,19.45
2022-12-12T20:04:05.404Z,23.02
2022-12-12T20:06:47.500Z,21.15
2022-12-12T20:09:17.137Z,19.83
2022-12-12T20:11:45.273Z,18.53
2022-12-12T20:14:16.950Z,21.55
2022-12-12T20:16:43.807Z,23.77
2022-12-12T20:19:11.124Z,18.50
2022-12-12T20:24:26.399Z,23.53
2022-12-12T20:26:55.065Z,17.80
2022-12-12T20:29:22.322Z,25.10
2022-12-12T20:31:49.700Z,22.92
2022-12-12T20:34:19.309Z,22.10
2022-12-12T20:36:46.573Z,21.70
2022-12-12T20:39:20.481Z,21.40
2022-12-12T20:41:47.141Z,23.05
2022-12-12T20:44:13.998Z,20.90
2022-12-12T20:46:43.138Z,20.52
2022-12-12T20:49:13.517Z,19.97
2022-12-12T20:51:57.318Z,22.65
2022-12-12T20:54:26.214Z,19.98
2022-12-12T20:56:54.565Z,20.63
2022-12-12T20:59:21.475Z,20.20
2022-12-12T21:01:48.198Z,26.03
2022-12-12T21:04:15.604Z,25.33
2022-12-12T21:06:51.416Z,27.63
2022-12-12T21:09:24.331Z,24.00
2022-12-12T21:11:54.373Z,25.40
2022-12-12T21:14:21.018Z,21.87
2022-12-12T21:16:47.531Z,24.25
2022-12-12T21:19:14.881Z,25.92
2022-12-12T21:21:42.931Z,24.77
2022-12-12T21:24:12.299Z,26.27
2022-12-12T21:26:39.322Z,25.20
2022-12-12T21:29:05.912Z,25.77
2022-12-12T21:31:36.584Z,24.25
2022-12-12T21:34:05.178Z,23.85
2022-12-12T21:36:32.629Z,24.40
2022-12-12T21:39:00.938Z,23.77
2022-12-12T21:41:27.849Z,23.98
2022-12-12T21:43:59.574Z,25.55
2022-12-12T21:46:27.882Z,24.38
2022-12-12T21:49:13.667Z,24.23
2022-12-12T21:51:41.132Z,23.80
2022-12-12T21:54:09.119Z,25.52
2022-12-12T21:56:35.746Z,24.60
2022-12-12T21:59:03.324Z,21.48
2022-12-12T22:01:31.848Z,26.50
2022-12-12T22:03:59.229Z,24.50
2022-12-12T22:06:28.071Z,25.25
2022-12-12T22:08:55.986Z,25.10
2022-12-12T22:11:40.545Z,25.67
2022-12-12T22:14:10.500Z,24.48
2022-12-12T22:16:37.834Z,21.03
2022-12-12T22:19:10.907Z,26.85
2022-12-12T22:21:37.845Z,25.05
2022-12-12T22:24:05.354Z,22.27
2022-12-12T22:26:34.982Z,25.48
2022-12-12T22:29:04.560Z,25.03
2022-12-12T22:31:34.748Z,29.77
2022-12-12T22:34:04.815Z,25.00
2022-12-12T22:36:34.292Z,23.15
2022-12-12T22:39:01.340Z,24.42
2022-12-12T22:41:29.265Z,23.97
2022-12-12T22:43:57.638Z,26.10
2022-12-12T22:46:26.052Z,24.65
2022-12-12T22:48:54.735Z,23.23
2022-12-12T22:51:27.070Z,20.58
2022-12-12T22:53:56.561Z,22.47
2022-12-12T22:56:23.424Z,21.90
2022-12-12T22:58:50.004Z,20.05
2022-12-12T23:01:19.607Z,21.42
2022-12-12T23:03:46.971Z,25.15
2022-12-12T23:06:25.598Z,21.53
2022-12-12T23:08:55.616Z,21.75
2022-12-12T23:11:23.443Z,21.17
2022-12-12T23:13:53.053Z,22.88
2022-12-12T23:16:21.984Z,24.20
2022-12-12T23:18:48.522Z,17.70
2022-12-12T23:21:18.289Z,18.98
2022-12-12T23:23:46.084Z,20.85
2022-12-12T23:26:16.583Z,18.20
2022-12-12T23:28:43.959Z,18.88
2022-12-12T23:31:15.355Z,20.23
2022-12-12T23:33:42.347Z,17.38
2022-12-12T23:36:10.431Z,18.73
2022-12-12T23:38:37.463Z,19.45
2022-12-12T23:41:12.170Z,17.02
2022-12-12T23:43:39.014Z,17.17
2022-12-12T23:46:07.940Z,20.63
2022-12-12T23:48:35.171Z,17.35
2022-12-12T23:51:01.609Z,18.08
2022-12-12T23:53:31.696Z,19.67
2022-12-12T23:56:04.167Z,18.93
2022-12-12T23:58:30.597Z,18.63
